Weather History for Monticello, IA

Change the Weather History Date:

Wednesday, November 21, 2012

  Actual Average Record
Temperature  
Mean Temperature 48 °F -  
Max Temperature 62 °F 45 °F 89 °F (1997)
Min Temperature 33 °F 28 °F 1 °F (2014)
Degree Days  
Heating Degree Days 18    
Moisture  
Dew Point 41 °F    
Average Humidity 85    
Maximum Humidity 100    
Minimum Humidity 59    
Precipitation  
Precipitation 0.00 in - - ()
Sea Level Pressure  
Sea Level Pressure 30.11 in    
Wind  
Wind Speed 5 mph (SSE)    
Max Wind Speed 13 mph    
Max Gust Speed 16 mph    
Visibility 5 miles    
Events Fog    
Averages and records for this station are not official NWS values.
T = Trace of Precipitation, MM = Missing Value Source: NWS Daily Summary

Daily Weather History Graph

Daily Weather History Graph

Search for Another Location

Airport:

Trip Planner

Search our weather history database for the weather conditions in past years. The results will help you decide how hot, cold, wet, or windy it might be!

Date:

Astronomy

Nov. 21, 2012 Rise Set
Actual Time 7:03 AM CST 4:37 PM CST
Civil Twilight 6:32 AM CST 5:08 PM CST
Nautical Twilight 5:58 AM CST 5:42 PM CST
Astronomical Twilight 5:24 AM CST 6:16 PM CST
Moon 1:00 PM CST (11/21) 12:15 AM CST (11/21)
Length of Visible Light 10h 36m
Length of Day
9h 34m
First Quarter, 62% of the Moon is Illuminated
Nov 21
First Quarter
Nov 28
Full
Dec 6
Last Quarter
Dec 13
New
Dec 19
First Quarter

Hourly Weather History & Observations

Time (CST) Temp. Windchill Dew Point Humidity Pressure Visibility Wind Dir Wind Speed Gust Speed Precip Events Conditions
12:15 AM 35.6 °F - 33.8 °F 93% 30.19 in 0.2 mi Calm Calm - N/A Fog Fog
12:35 AM 35.6 °F - 33.8 °F 93% 30.19 in 0.2 mi Calm Calm - N/A Fog Fog
12:55 AM 35.6 °F 32.8 °F 33.8 °F 93% 30.18 in 0.2 mi SE 3.5 mph - N/A Fog Fog
1:15 AM 35.6 °F - 33.8 °F 93% 30.18 in 0.2 mi Calm Calm - N/A Fog Fog
1:35 AM 33.8 °F - 33.8 °F 100% 30.18 in 0.2 mi Calm Calm - N/A Fog Fog
1:55 AM 33.8 °F - 33.8 °F 100% 30.19 in 0.2 mi Calm Calm - N/A Fog Fog
2:15 AM 33.8 °F - 33.8 °F 100% 30.19 in 0.2 mi Calm Calm - N/A Fog Fog
2:35 AM 33.8 °F - 33.8 °F 100% 30.19 in 0.2 mi Calm Calm - N/A Fog Fog
2:55 AM 33.8 °F 30.8 °F 33.8 °F 100% 30.18 in 0.2 mi SSE 3.5 mph - N/A Fog Fog
3:15 AM 33.8 °F - 32.0 °F 93% 30.19 in 0.2 mi Calm Calm - N/A Fog Fog
3:35 AM 33.8 °F 30.8 °F 32.0 °F 93% 30.19 in 0.2 mi SSE 3.5 mph - N/A Fog Fog
3:55 AM 33.8 °F - 32.0 °F 93% 30.19 in 0.2 mi Calm Calm - N/A Fog Fog
4:15 AM 33.8 °F - 32.0 °F 93% 30.19 in 0.2 mi Calm Calm - N/A Fog Fog
4:35 AM 33.8 °F - 32.0 °F 93% 30.19 in 0.2 mi Calm Calm - N/A Fog Fog
4:55 AM 33.8 °F 30.8 °F 32.0 °F 93% 30.19 in 0.2 mi SSE 3.5 mph - N/A Fog Fog
5:15 AM 33.8 °F 29.6 °F 32.0 °F 93% 30.19 in 0.2 mi SSE 4.6 mph - N/A Fog Fog
5:35 AM 33.8 °F 29.6 °F 32.0 °F 93% 30.19 in 0.2 mi South 4.6 mph - N/A Fog Fog
5:55 AM 33.8 °F 30.8 °F 32.0 °F 93% 30.19 in 0.2 mi South 3.5 mph - N/A Fog Fog
6:15 AM 33.8 °F 30.8 °F 32.0 °F 93% 30.19 in 0.2 mi South 3.5 mph - N/A Fog Fog
6:35 AM 33.8 °F 30.8 °F 32.0 °F 93% 30.18 in 0.2 mi South 3.5 mph - N/A Fog Fog
6:55 AM 33.8 °F 29.6 °F 32.0 °F 93% 30.18 in 0.2 mi SSE 4.6 mph - N/A Fog Fog
7:15 AM 33.8 °F 29.6 °F 32.0 °F 93% 30.18 in 0.2 mi SSE 4.6 mph - N/A Fog Fog
7:35 AM 35.6 °F 29.9 °F 33.8 °F 93% 30.18 in 0.2 mi SSE 6.9 mph - N/A Fog Fog
7:55 AM 35.6 °F 31.7 °F 33.8 °F 93% 30.19 in 0.2 mi South 4.6 mph - N/A Fog Fog
8:15 AM 37.4 °F 32.1 °F 35.6 °F 93% 30.19 in 0.2 mi South 6.9 mph - N/A Fog Fog
8:35 AM 37.4 °F 32.8 °F 37.4 °F 100% 30.19 in 0.2 mi South 5.8 mph - N/A Fog Fog
8:55 AM 39.2 °F 33.6 °F 37.4 °F 93% 30.18 in 0.5 mi South 8.1 mph - N/A Fog Fog
9:15 AM 39.2 °F 34.2 °F 39.2 °F 100% 30.18 in 1.0 mi South 6.9 mph - N/A   Overcast
9:35 AM 42.8 °F 38.6 °F 39.2 °F 87% 30.18 in 1.5 mi South 6.9 mph - N/A   Overcast
9:55 AM 42.8 °F 37.5 °F 42.8 °F 100% 30.18 in 3.0 mi South 9.2 mph - N/A   Mostly Cloudy
10:15 AM 44.6 °F 39.2 °F 42.8 °F 93% 30.18 in 4.0 mi South 10.4 mph - N/A   Scattered Clouds
10:35 AM 46.4 °F 41.5 °F 44.6 °F 93% 30.17 in 5.0 mi South 10.4 mph - N/A   Scattered Clouds
10:55 AM 46.4 °F 42.4 °F 46.4 °F 100% 30.16 in 7.0 mi South 8.1 mph - N/A   Clear
11:15 AM 51.8 °F - 50.0 °F 94% 30.14 in 7.0 mi SSE 8.1 mph - N/A   Clear
11:35 AM 53.6 °F - 51.8 °F 94% 30.13 in 7.0 mi South 9.2 mph - N/A   Clear
11:55 AM 55.4 °F - 48.2 °F 77% 30.12 in 7.0 mi South 10.4 mph - N/A   Clear
12:15 PM 55.4 °F - 48.2 °F 77% 30.11 in 10.0 mi South 11.5 mph - N/A   Clear
12:35 PM 57.2 °F - 48.2 °F 72% 30.10 in 10.0 mi South 11.5 mph - N/A   Clear
12:55 PM 59.0 °F - 48.2 °F 67% 30.10 in 10.0 mi South 10.4 mph - N/A   Clear
1:15 PM 60.8 °F - 48.2 °F 63% 30.09 in 10.0 mi South 12.7 mph - N/A   Clear
1:35 PM 60.8 °F - 48.2 °F 63% 30.08 in 10.0 mi South 11.5 mph - N/A   Clear
1:55 PM 62.6 °F - 50.0 °F 63% 30.07 in 10.0 mi South 10.4 mph - N/A   Clear
2:15 PM 62.6 °F - 48.2 °F 59% 30.06 in 10.0 mi South 11.5 mph - N/A   Clear
2:35 PM 62.6 °F - 48.2 °F 59% 30.06 in 10.0 mi South 11.5 mph - N/A   Clear
2:55 PM 62.6 °F - 48.2 °F 59% 30.05 in 10.0 mi South 10.4 mph - N/A   Clear
3:15 PM 62.6 °F - 48.2 °F 59% 30.04 in 10.0 mi South 11.5 mph - N/A   Clear
3:35 PM 62.6 °F - 48.2 °F 59% 30.04 in 10.0 mi South 11.5 mph - N/A   Clear
3:55 PM 60.8 °F - 48.2 °F 63% 30.04 in 10.0 mi South 10.4 mph - N/A   Clear
4:15 PM 60.8 °F - 48.2 °F 63% 30.04 in 10.0 mi SSE 8.1 mph - N/A   Clear
4:35 PM 57.2 °F - 48.2 °F 72% 30.04 in 10.0 mi South 8.1 mph - N/A   Clear
4:55 PM 57.2 °F - 46.4 °F 67% 30.04 in 10.0 mi SSE 8.1 mph - N/A   Clear
5:15 PM 53.6 °F - 46.4 °F 77% 30.04 in 10.0 mi SE 6.9 mph - N/A   Clear
5:35 PM 53.6 °F - 46.4 °F 77% 30.03 in 10.0 mi SE 10.4 mph - N/A   Clear
5:55 PM 53.6 °F - 46.4 °F 77% 30.03 in 7.0 mi SSE 10.4 mph - N/A   Clear
6:15 PM 51.8 °F - 46.4 °F 82% 30.03 in 7.0 mi SSE 8.1 mph - N/A   Clear
6:35 PM 50.0 °F - 46.4 °F 87% 30.03 in 7.0 mi SSE 8.1 mph - N/A   Clear
6:55 PM 51.8 °F - 46.4 °F 82% 30.03 in 7.0 mi SSE 9.2 mph - N/A   Clear
7:15 PM 50.0 °F - 46.4 °F 87% 30.03 in 7.0 mi SE 9.2 mph - N/A   Clear
7:35 PM 50.0 °F - 46.4 °F 87% 30.03 in 7.0 mi SE 8.1 mph - N/A   Clear
7:55 PM 48.2 °F - 44.6 °F 87% 30.03 in 7.0 mi SE 8.1 mph - N/A   Clear
8:15 PM 48.2 °F - 44.6 °F 87% 30.02 in 7.0 mi SE 6.9 mph - N/A   Clear
8:35 PM 48.2 °F - 44.6 °F 87% 30.02 in 7.0 mi SE 6.9 mph - N/A   Clear
8:55 PM 48.2 °F - 44.6 °F 87% 30.02 in 7.0 mi SSE 9.2 mph - N/A   Clear
9:15 PM 48.2 °F - 44.6 °F 87% 30.02 in 7.0 mi SSE 9.2 mph - N/A   Clear
9:35 PM 48.2 °F - 44.6 °F 87% 30.02 in 7.0 mi South 5.8 mph - N/A   Clear
9:55 PM 46.4 °F 42.9 °F 44.6 °F 93% 30.02 in 7.0 mi South 6.9 mph - N/A   Clear
10:15 PM 46.4 °F 42.4 °F 44.6 °F 93% 30.02 in 7.0 mi South 8.1 mph - N/A   Clear
10:35 PM 48.2 °F - 44.6 °F 87% 30.01 in 10.0 mi South 9.2 mph - N/A   Clear
10:55 PM 48.2 °F - 44.6 °F 87% 30.01 in 10.0 mi South 8.1 mph - N/A   Clear
11:15 PM 48.2 °F - 44.6 °F 87% 30.00 in 10.0 mi South 10.4 mph - N/A   Clear
11:35 PM 48.2 °F - 44.6 °F 87% 30.00 in 10.0 mi South 11.5 mph 16.1 mph N/A   Clear
11:55 PM 48.2 °F - 44.6 °F 87% 30.00 in 10.0 mi South 9.2 mph - N/A   Clear